Time;durP1;ratioP1;P1;durP2;ratioP2;P2;SDS_P1;SDS_P2;PMS_P1;PMS_P2;Temp;Humidity;BMP_temperature;BMP_pressure;BME280_temperature;BME280_humidity;BME280_pressure;Samples;Min_cycle;Max_cycle;Signal;HPM_P1;HPM_P2
2022/07/18 00:01:13;;;;;;;7.57;2.13;;;18.70;82.20;;;15.56;77.56;101383.34;5053069;28;20408;-86
2022/07/18 00:03:40;;;;;;;5.78;1.90;;;18.60;82.40;;;15.51;77.62;101385.81;5070800;28;20074;-85
2022/07/18 00:06:08;;;;;;;7.30;2.08;;;18.60;82.50;;;15.49;77.78;101382.44;5070696;28;20060;-86
2022/07/18 00:08:35;;;;;;;5.28;1.90;;;18.60;82.70;;;15.44;78.15;101382.19;5069926;28;20063;-86
2022/07/18 00:11:03;;;;;;;4.70;2.08;;;18.50;82.80;;;15.43;77.66;101380.47;5070595;28;20131;-86
2022/07/18 00:13:30;;;;;;;4.80;1.95;;;18.50;82.60;;;15.40;78.57;101375.38;5070607;28;20054;-86
2022/07/18 00:15:57;;;;;;;5.15;1.75;;;18.50;83.10;;;15.36;78.41;101374.91;5070653;28;20044;-85
2022/07/18 00:18:25;;;;;;;4.18;1.80;;;18.50;83.10;;;15.35;78.43;101378.72;5069856;28;20124;-87
2022/07/18 00:20:52;;;;;;;4.75;2.17;;;18.50;83.10;;;15.34;78.54;101376.16;5070470;28;20044;-86
2022/07/18 00:23:21;;;;;;;6.82;2.15;;;18.40;83.10;;;15.31;78.61;101371.91;5070450;28;20123;-86
2022/07/18 00:25:48;;;;;;;7.63;2.20;;;18.40;82.90;;;15.32;78.28;101372.75;5070594;28;20499;-86
2022/07/18 00:28:16;;;;;;;7.00;1.90;;;18.40;83.00;;;15.32;78.85;101365.38;5070083;28;20119;-85
2022/07/18 00:30:44;;;;;;;5.72;2.25;;;18.40;83.30;;;15.28;79.13;101365.97;5069945;28;20490;-86
2022/07/18 00:33:11;;;;;;;7.55;2.15;;;18.40;83.70;;;15.27;80.46;101367.00;5070342;28;20131;-85
2022/07/18 00:35:39;;;;;;;7.97;2.13;;;18.40;84.50;;;15.21;80.50;101364.00;5070250;28;20041;-86
2022/07/18 00:38:07;;;;;;;5.25;2.03;;;18.40;84.50;;;15.19;80.48;101355.13;5070107;28;20386;-85
2022/07/18 00:40:35;;;;;;;4.10;2.10;;;18.30;84.50;;;15.16;81.37;101357.41;5069481;28;20040;-86
2022/07/18 00:43:03;;;;;;;4.45;1.80;;;18.20;85.00;;;15.14;81.08;101354.84;5070001;28;20048;-86
2022/07/18 00:45:31;;;;;;;7.00;2.10;;;18.20;84.80;;;15.13;81.32;101352.31;5069985;28;20044;-87
2022/07/18 00:47:58;;;;;;;5.22;2.00;;;18.20;85.20;;;15.07;81.77;101350.34;5069789;28;20135;-86
2022/07/18 00:50:25;;;;;;;4.75;2.33;;;18.20;85.20;;;15.04;81.47;101343.34;5069125;28;20046;-86
2022/07/18 00:52:53;;;;;;;6.00;2.00;;;18.20;84.90;;;15.02;81.94;101337.19;5069963;28;20136;-86
2022/07/18 00:55:20;;;;;;;4.05;1.67;;;18.20;85.00;;;14.99;81.49;101338.44;5069922;28;20071;-86
2022/07/18 00:57:49;;;;;;;5.45;2.00;;;18.20;84.90;;;14.98;82.38;101334.03;5069945;28;20428;-85
2022/07/18 01:03:01;;;;;;;4.85;2.15;;;18.10;85.30;;;14.93;82.04;101335.66;5069664;28;20044;-86
2022/07/18 01:05:28;;;;;;;6.05;2.28;;;18.10;85.40;;;14.92;81.93;101347.63;5069775;28;20044;-86
2022/07/18 01:07:55;;;;;;;4.78;1.92;;;18.00;85.30;;;14.93;81.66;101349.34;5069933;28;20501;-86
2022/07/18 01:10:23;;;;;;;4.85;1.95;;;18.00;85.10;;;14.89;81.52;101353.50;5050964;28;20689;-86
2022/07/18 01:12:51;;;;;;;4.63;1.83;;;18.00;85.20;;;14.88;81.14;101344.44;5069664;28;20075;-85
2022/07/18 01:15:19;;;;;;;4.93;2.00;;;18.00;85.00;;;14.90;81.68;101356.06;5068509;28;20048;-85
2022/07/18 01:17:46;;;;;;;4.82;1.80;;;18.00;85.20;;;14.89;81.85;101350.75;5067577;28;20071;-86
2022/07/18 01:20:13;;;;;;;4.60;1.88;;;18.00;85.40;;;14.86;82.11;101352.84;5068729;28;20048;-86
2022/07/18 01:22:42;;;;;;;5.85;2.03;;;18.00;85.60;;;14.86;82.48;101346.53;5069542;28;20109;-85
2022/07/18 01:25:10;;;;;;;5.55;2.08;;;18.00;85.70;;;14.85;82.05;101350.31;5069659;28;20052;-85
2022/07/18 01:27:38;;;;;;;4.80;2.10;;;18.00;85.70;;;14.84;81.73;101343.13;5069585;28;20511;-85
2022/07/18 01:30:07;;;;;;;5.72;2.00;;;17.90;85.20;;;14.83;82.65;101353.25;5068680;28;20045;-85
2022/07/18 01:32:34;;;;;;;5.10;1.85;;;17.90;85.90;;;14.81;82.48;101346.25;5069629;28;20041;-86
2022/07/18 01:35:01;;;;;;;5.40;1.90;;;17.90;85.80;;;14.77;82.37;101342.19;5069680;28;20048;-86
2022/07/18 01:37:29;;;;;;;6.00;2.33;;;17.90;85.60;;;14.74;82.12;101340.69;5069577;28;20041;-86
2022/07/18 01:39:57;;;;;;;7.15;1.88;;;17.90;85.60;;;14.70;82.68;101336.63;5050653;28;20171;-86
2022/07/18 01:42:24;;;;;;;5.40;2.00;;;17.80;85.70;;;14.68;83.54;101333.25;5069389;28;20041;-86
2022/07/18 01:44:51;;;;;;;4.80;2.03;;;17.80;86.30;;;14.68;84.29;101341.47;5069497;28;20059;-86
2022/07/18 01:47:19;;;;;;;6.25;1.83;;;17.80;86.90;;;14.65;84.14;101336.34;5051226;28;20477;-85
2022/07/18 01:49:46;;;;;;;4.43;2.13;;;17.80;86.90;;;14.62;84.24;101340.34;5050010;28;20444;-86
2022/07/18 01:52:13;;;;;;;3.95;1.80;;;17.80;86.70;;;14.58;85.09;101338.16;5069194;28;20143;-86
2022/07/18 01:54:40;;;;;;;4.13;1.90;;;17.80;87.10;;;14.54;84.63;101336.81;5069299;28;20040;-85
2022/07/18 01:57:09;;;;;;;4.85;1.98;;;17.80;87.20;;;14.50;85.24;101341.81;5069274;28;20041;-85
2022/07/18 01:59:36;;;;;;;6.32;2.13;;;17.70;87.20;;;14.48;85.34;101341.16;5068479;28;20496;-85
2022/07/18 02:02:05;;;;;;;5.00;1.95;;;17.70;87.30;;;14.45;85.54;101344.28;5072721;28;20126;-85
2022/07/18 02:07:22;;;;;;;3.92;1.73;;;17.60;87.40;;;14.44;85.57;101329.72;5073071;28;20040;-86
2022/07/18 02:09:49;;;;;;;4.38;1.88;;;17.60;87.70;;;14.41;85.73;101338.34;5072245;28;20044;-86
2022/07/18 02:12:18;;;;;;;8.52;2.00;;;17.60;87.80;;;14.41;86.02;101332.88;5073018;28;20048;-85
2022/07/18 02:14:45;;;;;;;4.50;1.80;;;17.50;88.00;;;14.38;86.25;101338.72;5073102;28;20068;-85
2022/07/18 02:17:12;;;;;;;8.65;1.98;;;17.50;88.20;;;14.35;86.29;101333.59;5072980;28;20059;-86
2022/07/18 02:19:39;;;;;;;4.10;1.90;;;17.50;88.20;;;14.33;86.48;101332.94;5071909;28;20052;-85
2022/07/18 02:22:07;;;;;;;6.22;1.80;;;17.50;88.30;;;14.33;86.40;101338.41;5072610;28;20052;-86
2022/07/18 02:24:34;;;;;;;6.15;2.20;;;17.50;88.40;;;14.31;86.75;101326.81;5072682;28;20044;-85
2022/07/18 02:27:01;;;;;;;4.90;1.88;;;17.50;88.50;;;14.28;87.51;101329.94;5072805;28;20670;-85
2022/07/18 02:29:30;;;;;;;4.88;1.90;;;17.50;88.70;;;14.28;86.77;101324.47;5071792;28;20165;-86
2022/07/18 02:31:57;;;;;;;4.00;1.63;;;17.50;88.30;;;14.24;86.79;101320.38;5054554;28;20044;-85
2022/07/18 02:34:24;;;;;;;5.25;1.85;;;17.50;88.20;;;14.24;86.75;101314.91;5072522;28;20048;-85
2022/07/18 02:36:51;;;;;;;4.38;1.77;;;17.40;88.10;;;14.21;86.87;101318.88;5072480;28;20048;-86
2022/07/18 02:39:19;;;;;;;4.75;1.95;;;17.40;88.30;;;14.20;86.78;101319.06;5070378;28;20044;-86
2022/07/18 02:41:46;;;;;;;5.00;1.98;;;17.30;88.20;;;14.19;86.79;101322.84;5072476;28;20044;-85
2022/07/18 02:44:14;;;;;;;4.93;2.13;;;17.40;88.40;;;14.18;86.95;101326.63;5072589;28;20546;-86
2022/07/18 02:46:43;;;;;;;4.95;1.92;;;17.40;88.40;;;14.18;86.81;101321.16;5072398;28;20043;-86
2022/07/18 02:49:26;;;;;;;7.13;2.20;;;17.40;88.60;;;14.15;86.97;101321.53;5071372;28;20131;-85
2022/07/18 02:51:55;;;;;;;5.05;1.95;;;17.30;88.60;;;14.15;87.40;101321.53;5054294;28;20059;-85
2022/07/18 02:54:23;;;;;;;5.63;1.88;;;17.30;88.60;;;14.12;87.19;101325.47;5072243;28;20054;-86
2022/07/18 02:56:53;;;;;;;5.43;1.63;;;17.30;88.70;;;14.11;87.65;101320.19;5072198;28;20051;-85
2022/07/18 02:59:21;;;;;;;4.73;1.80;;;17.30;88.90;;;14.07;87.72;101322.47;5071233;28;20063;-86
2022/07/18 03:01:50;;;;;;;5.55;1.90;;;17.30;88.90;;;14.04;87.76;101331.91;5071933;28;20404;-86
2022/07/18 03:04:17;;;;;;;4.45;1.85;;;17.30;88.90;;;14.03;88.56;101329.34;5072047;28;20123;-85
2022/07/18 03:06:45;;;;;;;4.72;1.80;;;17.30;89.30;;;14.04;87.87;101326.44;5072026;28;20090;-85
2022/07/18 03:09:12;;;;;;;6.53;1.85;;;17.20;89.00;;;14.04;87.88;101325.59;5071263;28;20056;-86
2022/07/18 03:11:39;;;;;;;5.63;2.17;;;17.30;89.10;;;14.05;87.74;101316.31;5068497;28;20079;-85
2022/07/18 03:14:06;;;;;;;7.35;2.35;;;17.20;89.10;;;14.03;88.02;101312.91;5071864;28;20040;-85
2022/07/18 03:16:34;;;;;;;6.28;1.70;;;17.20;89.10;;;14.02;87.93;101311.25;5071881;28;20055;-86
2022/07/18 03:19:03;;;;;;;6.43;1.90;;;17.20;89.10;;;14.03;87.38;101313.78;5070915;28;20514;-85
2022/07/18 03:21:30;;;;;;;5.63;1.98;;;17.20;88.90;;;13.99;88.03;101323.41;5071746;28;20050;-85
2022/07/18 03:23:57;;;;;;;4.47;1.92;;;17.20;89.00;;;13.97;88.10;101320.00;5071950;28;20048;-85
2022/07/18 03:26:25;;;;;;;4.13;1.75;;;17.20;89.10;;;13.97;87.88;101311.78;5071592;28;20036;-86
2022/07/18 03:28:52;;;;;;;4.68;1.98;;;17.20;89.20;;;13.99;87.61;101309.75;5070755;28;20817;-86
2022/07/18 03:31:19;;;;;;;4.03;1.52;;;17.10;89.10;;;13.99;87.08;101304.25;5071641;28;20048;-86
2022/07/18 03:33:46;;;;;;;4.50;1.90;;;17.10;88.80;;;14.03;86.72;101305.59;5071409;28;20044;-85
2022/07/18 03:36:15;;;;;;;3.75;1.70;;;17.10;88.60;;;13.97;87.62;101311.78;5053489;28;20072;-85
2022/07/18 03:38:42;;;;;;;5.10;1.88;;;17.10;89.10;;;13.93;87.96;101306.88;5070741;28;20052;-85
2022/07/18 03:41:10;;;;;;;6.00;2.05;;;17.10;89.30;;;13.92;87.81;101308.78;5071313;28;20076;-85
2022/07/18 03:43:38;;;;;;;3.42;1.45;;;17.10;89.20;;;13.91;87.97;101308.97;5070894;28;20044;-85
2022/07/18 03:46:06;;;;;;;6.00;1.80;;;17.10;89.40;;;13.89;87.92;101300.94;5071443;28;20048;-85
2022/07/18 03:48:34;;;;;;;4.65;1.80;;;17.10;89.30;;;13.91;87.63;101309.81;5070363;28;20057;-85
2022/07/18 03:51:02;;;;;;;3.83;1.60;;;17.10;89.30;;;13.94;87.94;101308.59;5071183;28;20040;-86
2022/07/18 03:53:31;;;;;;;5.82;1.65;;;17.00;89.40;;;13.97;87.69;101309.03;5071225;28;20044;-85
2022/07/18 03:55:58;;;;;;;6.50;2.22;;;17.00;89.40;;;13.96;87.86;101307.38;5071057;28;20052;-86
2022/07/18 03:58:26;;;;;;;4.30;1.80;;;17.00;89.30;;;13.97;87.89;101309.03;5070303;28;20079;-86
2022/07/18 04:00:54;;;;;;;7.65;1.75;;;17.00;89.50;;;13.99;87.62;101308.88;5070875;28;20044;-85
2022/07/18 04:03:21;;;;;;;4.60;1.70;;;17.00;89.40;;;13.99;87.92;101307.00;5085843;22;20052;-76
2022/07/18 04:05:49;;;;;;;4.25;1.77;;;17.00;89.60;;;14.03;87.70;101302.84;5070790;28;20076;-77
2022/07/18 04:08:16;;;;;;;5.03;1.70;;;17.10;89.70;;;14.05;87.18;101311.72;5070208;28;20068;-76
2022/07/18 04:10:45;;;;;;;4.97;1.90;;;17.00;89.50;;;14.10;86.60;101299.34;5070325;28;20490;-77
2022/07/18 04:13:13;;;;;;;3.67;1.65;;;17.00;89.30;;;14.15;86.78;101305.97;5059448;28;20041;-76
2022/07/18 04:15:42;;;;;;;4.93;1.90;;;17.00;89.30;;;14.19;86.51;101309.16;5050710;28;20143;-77
2022/07/18 04:18:09;;;;;;;4.45;1.70;;;17.10;89.60;;;14.23;86.59;101305.00;5050502;28;20041;-76
2022/07/18 04:20:39;;;;;;;4.63;1.70;;;17.10;89.70;;;14.28;86.81;101308.88;5050122;28;20037;-77
2022/07/18 04:23:09;;;;;;;6.63;1.92;;;17.10;89.70;;;14.27;86.80;101309.91;5050121;28;20045;-77
2022/07/18 04:25:38;;;;;;;5.53;1.67;;;17.10;89.90;;;14.35;86.53;101305.38;5050650;28;20127;-77
2022/07/18 04:28:11;;;;;;;3.63;1.60;;;17.10;90.10;;;14.40;87.24;101300.19;5050565;28;20084;-77
2022/07/18 04:30:40;;;;;;;5.53;1.73;;;17.10;90.30;;;14.45;87.32;101306.78;5050232;28;20127;-77
2022/07/18 04:33:10;;;;;;;5.90;1.67;;;17.10;90.50;;;14.52;87.21;101309.59;5050374;28;20112;-77
2022/07/18 04:35:38;;;;;;;4.72;1.85;;;17.10;90.50;;;14.59;87.22;101307.00;5049098;28;20130;-77
2022/07/18 04:38:08;;;;;;;4.90;1.58;;;17.10;90.50;;;14.63;87.07;101309.16;5048841;28;20072;-77
2022/07/18 04:40:35;;;;;;;5.65;1.70;;;17.20;90.70;;;14.70;86.99;101303.75;5031603;28;20077;-77
2022/07/18 04:43:03;;;;;;;7.28;1.75;;;17.20;90.90;;;14.77;86.92;101298.34;5050131;28;20060;-77
2022/07/18 04:45:33;;;;;;;6.78;1.80;;;17.20;90.90;;;14.80;87.50;101301.56;5050198;28;20060;-77
2022/07/18 04:48:01;;;;;;;7.70;2.00;;;17.20;91.40;;;14.80;87.81;101308.94;5049993;28;20063;-77
2022/07/18 04:50:29;;;;;;;5.85;2.70;;;17.30;91.90;;;14.76;87.88;101305.72;5049244;28;20139;-77
2022/07/18 04:52:57;;;;;;;7.38;4.30;;;17.30;91.60;;;14.79;88.44;101308.09;5050137;28;20059;-77
2022/07/18 04:55:26;;;;;;;8.05;3.72;;;17.30;91.80;;;14.84;88.28;101300.13;5050041;28;20041;-76
2022/07/18 04:57:54;;;;;;;5.38;2.90;;;17.40;91.70;;;15.01;87.96;101299.88;5050053;28;20041;-77
2022/07/18 05:00:24;;;;;;;5.55;2.00;;;17.40;91.80;;;15.16;88.00;101297.09;5047740;28;20060;-77
2022/07/18 05:02:56;;;;;;;4.93;2.40;;;17.50;92.20;;;15.41;87.90;101297.53;5049944;28;20041;-77
2022/07/18 05:05:25;;;;;;;8.13;2.40;;;17.50;92.60;;;15.74;85.43;101302.47;5049988;28;20124;-77
2022/07/18 05:07:52;;;;;;;9.32;2.35;;;17.60;92.00;;;16.08;82.39;101301.66;5049940;28;20116;-76
2022/07/18 05:10:21;;;;;;;4.85;1.98;;;17.70;90.90;;;16.24;83.66;101300.50;5049045;28;20460;-77
2022/07/18 05:12:51;;;;;;;6.78;1.95;;;17.80;91.50;;;16.38;83.50;101296.75;5049224;28;20053;-77
2022/07/18 05:15:22;;;;;;;7.00;2.30;;;17.90;91.90;;;16.49;83.14;101292.59;5047562;28;20048;-77
2022/07/18 05:17:49;;;;;;;7.22;2.42;;;17.90;91.90;;;16.60;80.60;101291.13;5049717;28;20120;-76
2022/07/18 05:20:23;;;;;;;8.02;2.35;;;18.00;90.60;;;16.68;79.44;101292.84;5048994;28;20036;-76
2022/07/18 05:22:51;;;;;;;5.30;2.33;;;18.10;90.00;;;16.73;79.92;101280.19;5031703;28;20076;-76
2022/07/18 05:25:19;;;;;;;6.65;2.05;;;18.20;90.20;;;16.84;80.58;101278.78;5049543;28;20048;-76
2022/07/18 05:27:47;;;;;;;11.23;2.97;;;18.20;90.50;;;16.98;78.86;101279.63;5049642;28;20064;-76
2022/07/18 05:30:15;;;;;;;13.85;2.92;;;18.30;90.00;;;17.03;78.71;101277.13;5048966;28;20049;-77
2022/07/18 05:32:44;;;;;;;9.95;2.83;;;18.30;90.00;;;17.10;80.04;101275.25;5049690;28;20061;-76
2022/07/18 05:35:12;;;;;;;17.27;2.63;;;18.40;90.30;;;17.25;78.74;101275.06;5050246;28;20056;-76
2022/07/18 05:37:42;;;;;;;11.35;2.60;;;18.40;90.10;;;17.30;77.51;101279.91;5053789;28;20555;-77
2022/07/18 05:40:12;;;;;;;7.70;2.70;;;18.50;89.80;;;17.42;76.90;101281.00;5052820;28;20132;-77
2022/07/18 05:42:39;;;;;;;8.65;3.15;;;18.50;89.20;;;17.51;77.47;101279.69;5053643;28;20474;-77
2022/07/18 05:45:08;;;;;;;12.57;3.20;;;18.60;89.70;;;17.60;76.61;101277.59;5053664;28;20552;-77
2022/07/18 05:47:36;;;;;;;12.93;2.88;;;18.60;89.40;;;17.68;77.30;101273.78;5053445;28;20037;-77
2022/07/18 05:50:04;;;;;;;10.05;2.78;;;18.70;89.70;;;17.78;76.54;101276.91;5052503;28;20390;-76
2022/07/18 05:52:31;;;;;;;9.93;2.17;;;18.80;89.80;;;17.94;75.32;101271.00;5053785;28;20061;-77
2022/07/18 05:55:00;;;;;;;9.20;2.42;;;18.80;89.10;;;18.03;75.59;101270.78;5054644;28;20047;-77
2022/07/18 05:57:27;;;;;;;9.48;2.25;;;18.90;89.10;;;18.30;74.78;101266.88;5053400;28;20062;-76
2022/07/18 05:59:55;;;;;;;13.30;2.70;;;19.00;88.80;;;19.65;71.27;101263.09;5052427;28;20048;-76
2022/07/18 06:02:22;;;;;;;9.63;2.35;;;19.20;88.80;;;22.32;61.68;101258.41;5053085;28;20515;-76
2022/07/18 06:04:49;;;;;;;11.80;2.55;;;19.50;88.00;;;21.88;61.27;101255.19;5053220;28;20049;-77
2022/07/18 06:07:17;;;;;;;6.20;2.38;;;19.80;87.00;;;21.62;62.09;101254.59;5053170;28;20175;-77
2022/07/18 06:09:44;;;;;;;13.40;2.40;;;20.10;86.30;;;22.46;62.34;101251.50;5050973;28;20051;-77
2022/07/18 06:12:13;;;;;;;6.72;2.60;;;20.50;86.60;;;26.04;52.40;101235.09;5053245;28;20498;-77
2022/07/18 06:14:40;;;;;;;7.68;2.25;;;20.90;84.40;;;28.99;44.48;101221.50;5053266;28;20094;-77
2022/07/18 06:17:07;;;;;;;11.43;2.83;;;21.30;84.60;;;30.74;39.61;101224.16;5053007;28;20072;-77
2022/07/18 06:19:35;;;;;;;7.10;2.50;;;21.70;83.30;;;31.66;36.26;101221.00;5052093;28;20048;-77
2022/07/18 06:22:02;;;;;;;7.25;2.20;;;22.10;81.30;;;32.11;35.42;101221.28;5052830;28;20052;-77
2022/07/18 06:24:30;;;;;;;7.60;2.20;;;22.40;79.90;;;31.52;35.45;101219.00;5052831;28;20053;-77
2022/07/18 06:26:57;;;;;;;6.45;2.50;;;22.60;79.80;;;31.85;34.05;101218.94;5052819;28;20047;-77
2022/07/18 06:29:25;;;;;;;8.90;2.30;;;22.70;77.50;;;31.69;34.34;101214.78;5051880;28;20110;-78
2022/07/18 06:31:52;;;;;;;6.63;2.30;;;22.80;77.90;;;28.41;39.30;101219.34;5052568;28;20041;-78
2022/07/18 06:34:20;;;;;;;6.55;2.08;;;22.80;78.00;;;26.01;43.22;101235.66;5052896;28;20401;-77
2022/07/18 06:36:47;;;;;;;6.68;2.40;;;22.90;76.50;;;24.84;48.51;101239.13;5052678;28;20041;-78
2022/07/18 06:39:16;;;;;;;9.75;2.50;;;22.90;77.20;;;24.24;49.15;101240.06;5051843;28;20369;-77
2022/07/18 06:41:43;;;;;;;10.00;2.00;;;22.90;77.00;;;24.05;48.86;101243.16;5052288;28;20037;-78
2022/07/18 06:44:14;;;;;;;10.77;2.00;;;23.00;75.20;;;23.98;50.40;101232.22;5051355;28;20175;-77
2022/07/18 06:46:43;;;;;;;6.63;2.00;;;23.00;75.60;;;23.86;50.19;101236.22;5052046;28;20088;-77
2022/07/18 06:49:10;;;;;;;5.35;2.00;;;23.00;75.50;;;23.98;54.40;101237.78;5051593;28;20052;-78
2022/07/18 06:51:37;;;;;;;7.50;1.80;;;23.00;78.80;;;24.02;52.45;101232.53;5052395;28;20055;-77
2022/07/18 06:54:05;;;;;;;6.35;1.88;;;23.00;77.50;;;23.99;54.65;101230.28;5052215;28;20059;-77
2022/07/18 06:56:32;;;;;;;5.45;1.52;;;23.00;79.00;;;23.93;55.52;101222.97;5052233;28;20053;-77
2022/07/18 06:58:59;;;;;;;4.32;1.50;;;23.00;79.10;;;23.93;59.36;101231.31;5051269;28;20041;-77
2022/07/18 07:01:26;;;;;;;10.70;1.92;;;23.00;82.10;;;24.00;55.61;101223.63;5034118;28;20048;-77
2022/07/18 07:03:55;;;;;;;6.28;1.77;;;23.00;79.90;;;24.03;56.25;101222.25;5051620;28;20049;-77
2022/07/18 07:06:22;;;;;;;4.93;1.83;;;23.00;80.00;;;24.12;53.63;101218.78;5051938;28;20107;-77
2022/07/18 07:08:49;;;;;;;5.93;1.77;;;23.00;78.10;;;24.10;54.08;101215.41;5051313;28;20049;-77
2022/07/18 07:11:16;;;;;;;4.15;1.48;;;23.10;77.40;;;23.97;55.95;101213.88;5052088;28;20073;-77
2022/07/18 07:13:43;;;;;;;4.85;1.70;;;23.00;79.60;;;23.80;57.55;101218.63;5051839;28;20040;-77
2022/07/18 07:16:10;;;;;;;6.55;1.42;;;23.00;79.90;;;23.86;54.97;101222.31;5051978;28;20536;-77
2022/07/18 07:18:38;;;;;;;5.78;1.45;;;23.00;79.40;;;23.95;51.54;101220.75;5051196;28;20064;-77
2022/07/18 07:21:08;;;;;;;4.40;1.15;;;23.00;75.20;;;24.03;50.19;101216.69;5051854;28;20126;-77
2022/07/18 07:23:35;;;;;;;5.60;1.33;;;23.00;74.00;;;24.03;53.56;101217.56;5051772;28;20052;-77
2022/07/18 07:26:02;;;;;;;3.78;1.30;;;23.10;77.30;;;24.05;51.07;101220.91;5051742;28;20468;-78
2022/07/18 07:28:29;;;;;;;6.00;1.60;;;23.10;74.40;;;24.04;51.40;101216.44;5050845;28;20099;-77
2022/07/18 07:30:57;;;;;;;5.60;1.33;;;23.30;74.20;;;24.06;50.28;101211.47;5051563;28;20111;-77
2022/07/18 07:33:24;;;;;;;3.70;1.58;;;23.30;73.60;;;24.06;52.49;101203.13;5051477;28;20045;-77
2022/07/18 07:35:51;;;;;;;5.47;1.50;;;23.30;76.00;;;24.09;53.39;101208.19;5051545;28;20045;-77
2022/07/18 07:38:22;;;;;;;4.93;1.40;;;23.30;76.50;;;24.06;47.99;101199.50;5051208;28;20047;-77
2022/07/18 07:40:49;;;;;;;4.45;1.50;;;23.40;71.60;;;24.06;52.37;101208.69;5051388;28;20045;-77
2022/07/18 07:43:18;;;;;;;5.78;1.30;;;23.50;75.10;;;24.06;49.77;101211.47;5051381;28;20167;-77
2022/07/18 07:45:48;;;;;;;6.38;1.77;;;23.50;72.20;;;24.09;51.97;101204.56;5051452;28;20043;-77
2022/07/18 07:48:16;;;;;;;6.15;1.60;;;23.60;74.40;;;24.14;51.51;101202.69;5051036;28;20492;-77
2022/07/18 07:50:43;;;;;;;5.93;1.85;;;23.60;74.30;;;24.20;51.96;101201.66;5050843;28;20063;-77
2022/07/18 07:53:11;;;;;;;11.45;1.83;;;23.60;74.20;;;24.27;51.54;101195.03;5051369;28;20051;-77
2022/07/18 07:55:40;;;;;;;6.68;1.77;;;23.70;73.90;;;24.35;47.32;101198.22;5051255;28;20041;-77
2022/07/18 07:58:07;;;;;;;6.50;1.60;;;23.80;68.90;;;24.42;47.01;101198.00;5051073;28;20474;-77
2022/07/18 08:00:34;;;;;;;13.13;1.75;;;23.90;69.20;;;24.51;50.68;101199.25;5051821;28;20048;-77
2022/07/18 08:03:04;;;;;;;5.70;1.40;;;24.00;72.70;;;24.63;48.76;101199.09;5050939;28;20099;-77
2022/07/18 08:05:35;;;;;;;4.53;1.45;;;24.10;70.10;;;24.68;47.33;101195.53;5050958;28;20041;-77
2022/07/18 08:08:03;;;;;;;7.68;1.60;;;24.20;68.80;;;24.78;48.41;101199.25;5050934;28;20083;-77
2022/07/18 08:10:31;;;;;;;6.05;1.52;;;24.20;69.60;;;24.89;46.85;101191.84;5050092;28;20044;-77
2022/07/18 08:13:00;;;;;;;8.63;1.50;;;24.30;68.10;;;24.92;45.85;101191.34;5050852;28;20067;-77
2022/07/18 08:15:28;;;;;;;6.47;1.60;;;24.40;66.90;;;24.97;44.01;101193.31;5050930;28;20047;-77
2022/07/18 08:17:55;;;;;;;6.03;1.55;;;24.40;64.50;;;25.03;47.85;101189.47;5050769;28;20044;-77
2022/07/18 08:20:23;;;;;;;5.82;1.40;;;24.50;68.90;;;25.10;46.62;101189.25;5049886;28;20044;-77
2022/07/18 08:22:57;;;;;;;4.07;1.30;;;24.50;68.10;;;25.13;45.47;101185.91;5050663;28;20212;-77
2022/07/18 08:25:25;;;;;;;6.63;1.60;;;24.60;66.80;;;25.15;43.59;101189.28;5050841;28;20053;-77
2022/07/18 08:27:53;;;;;;;6.25;1.40;;;24.60;64.20;;;25.19;44.30;101190.44;5050499;28;20052;-77
2022/07/18 08:30:22;;;;;;;4.30;1.15;;;24.60;64.50;;;25.24;44.13;101182.13;5049717;28;20051;-77
2022/07/18 08:32:49;;;;;;;4.90;1.33;;;24.70;64.80;;;25.24;45.94;101189.66;5050337;28;20140;-77
2022/07/18 08:35:16;;;;;;;7.22;1.55;;;24.70;66.60;;;25.33;44.52;101179.72;5050492;28;20079;-77
2022/07/18 08:37:44;;;;;;;4.93;1.25;;;24.80;65.20;;;25.33;42.71;101186.13;5050613;28;20084;-77
2022/07/18 08:40:12;;;;;;;8.70;1.48;;;24.80;63.10;;;25.36;44.89;101182.81;5049316;28;20087;-77
2022/07/18 08:42:39;;;;;;;7.30;1.30;;;24.80;65.10;;;25.35;45.36;101181.13;5050138;28;20048;-78
2022/07/18 08:45:08;;;;;;;6.57;1.60;;;24.90;65.90;;;25.46;43.41;101172.84;5050435;28;20041;-78
2022/07/18 08:47:38;;;;;;;7.00;1.55;;;24.90;63.50;;;25.58;41.79;101176.25;5048783;28;20045;-78
2022/07/18 08:50:07;;;;;;;7.55;1.65;;;25.00;61.50;;;25.67;44.44;101179.38;5049237;28;20132;-79
2022/07/18 08:52:35;;;;;;;5.22;1.60;;;25.10;64.20;;;25.72;42.83;101177.47;5050002;28;20139;-78
2022/07/18 08:55:04;;;;;;;6.68;1.40;;;25.10;63.00;;;25.73;44.12;101172.72;5050101;28;20037;-77
2022/07/18 08:57:31;;;;;;;3.42;1.30;;;25.20;64.30;;;25.77;41.63;101184.19;5050098;28;20037;-78
2022/07/18 08:59:58;;;;;;;4.45;1.30;;;25.30;62.00;;;25.81;43.36;101180.56;5049063;28;20088;-78
2022/07/18 09:02:27;;;;;;;4.28;1.20;;;25.30;63.30;;;25.88;41.06;101181.16;5049831;28;20037;-78
2022/07/18 09:04:56;;;;;;;3.70;1.42;;;25.30;61.00;;;25.87;42.60;101184.22;5049857;28;20084;-78
2022/07/18 09:07:29;;;;;;;3.33;1.15;;;25.30;62.80;;;25.87;44.61;101184.22;5049587;28;20463;-78
2022/07/18 09:09:59;;;;;;;5.85;1.60;;;25.30;65.20;;;25.91;42.47;101180.66;5048706;28;20037;-78
2022/07/18 09:12:27;;;;;;;3.40;1.20;;;25.20;62.90;;;25.90;41.56;101189.28;5049608;28;20041;-78
2022/07/18 09:14:55;;;;;;;3.97;1.20;;;25.30;61.00;;;25.97;43.81;101192.69;5031853;28;20110;-78
2022/07/18 09:17:25;;;;;;;3.40;1.50;;;25.30;64.00;;;25.99;41.41;101184.88;5049982;28;20079;-78
2022/07/18 09:20:07;;;;;;;3.90;1.30;;;25.40;61.80;;;26.02;41.12;101178.75;5048955;28;20115;-77
2022/07/18 09:22:37;;;;;;;3.92;1.40;;;25.50;60.00;;;26.08;41.04;101177.69;5049638;28;20524;-78
2022/07/18 09:25:08;;;;;;;4.07;1.50;;;25.60;60.00;;;26.09;40.30;101176.56;5049591;28;20079;-78
2022/07/18 09:27:40;;;;;;;4.05;1.10;;;25.60;59.70;;;26.13;41.76;101176.84;5049753;28;20053;-78
2022/07/18 09:30:30;;;;;;;4.95;1.52;;;25.70;60.90;;;26.15;40.08;101180.19;5048788;28;20045;-78
2022/07/18 09:33:09;;;;;;;5.60;1.55;;;25.70;59.40;;;26.22;40.06;101182.75;5049928;28;20049;-78
2022/07/18 09:35:44;;;;;;;4.75;1.40;;;25.70;59.20;;;26.21;39.51;101178.28;5049645;28;20485;-77
2022/07/18 09:38:13;;;;;;;5.32;1.60;;;25.70;59.20;;;26.26;42.16;101175.50;5049254;28;20561;-77
2022/07/18 09:40:43;;;;;;;5.60;1.40;;;25.70;60.90;;;26.30;40.43;101174.69;5031127;28;20486;-78
2022/07/18 09:43:13;;;;;;;3.60;1.38;;;25.80;58.80;;;26.24;39.22;101172.16;5049419;28;20705;-77
2022/07/18 09:45:43;;;;;;;3.45;1.33;;;25.80;57.00;;;26.22;40.13;101174.38;5031513;28;20045;-78
2022/07/18 09:48:12;;;;;;;5.20;1.48;;;25.80;58.40;;;26.30;40.19;101171.88;5049139;28;20856;-77
2022/07/18 09:50:44;;;;;;;5.53;1.40;;;25.80;58.10;;;26.45;38.96;101164.69;5048936;28;20129;-79
2022/07/18 09:53:15;;;;;;;3.13;1.33;;;25.90;56.90;;;26.43;37.09;101169.69;5049299;28;20037;-79
2022/07/18 09:55:45;;;;;;;5.38;1.70;;;25.90;55.80;;;26.42;40.79;101165.22;5049413;28;20119;-79
2022/07/18 09:58:12;;;;;;;3.80;1.50;;;25.80;59.40;;;26.47;41.33;101163.28;5049011;28;20056;-79
2022/07/18 10:00:42;;;;;;;3.42;1.25;;;25.90;59.50;;;26.53;40.25;101158.56;5048872;28;20581;-79
2022/07/18 10:03:09;;;;;;;5.03;1.50;;;25.90;59.00;;;26.56;42.23;101157.16;5075870;22;20132;-87
2022/07/18 10:05:39;;;;;;;6.03;1.70;;;25.90;61.00;;;26.47;39.86;101165.25;5049363;28;20052;-86
2022/07/18 10:08:10;;;;;;;3.33;1.48;;;26.00;58.10;;;26.48;40.38;101170.56;5049235;28;20041;-87
2022/07/18 10:10:39;;;;;;;4.03;1.58;;;26.00;59.40;;;26.46;38.75;101164.38;5048758;28;20041;-86
2022/07/18 10:13:08;;;;;;;6.22;1.63;;;26.00;57.20;;;26.58;39.66;101164.16;5041836;28;20508;-86
2022/07/18 10:15:38;;;;;;;4.22;1.35;;;26.00;58.60;;;26.67;41.25;101167.25;5028152;28;20045;-86
2022/07/18 10:18:08;;;;;;;6.90;1.50;;;26.00;60.20;;;26.77;41.07;101170.06;5029277;28;20053;-86
2022/07/18 10:20:39;;;;;;;6.40;1.48;;;26.10;59.90;;;26.82;39.07;101164.47;5028624;28;20049;-87
2022/07/18 10:23:18;;;;;;;4.75;1.30;;;26.20;57.70;;;26.74;38.75;101169.78;5032590;28;20045;-86